Time;durP1;ratioP1;P1;durP2;ratioP2;P2;SDS_P1;SDS_P2;PMS_P1;PMS_P2;Temp;Humidity;BMP_temperature;BMP_pressure;BME280_temperature;BME280_humidity;BME280_pressure;Samples;Min_cycle;Max_cycle;Signal;HPM_P1;HPM_P2
2024/01/18 00:00:18;;;;;;;26.03;18.90;;;3.90;99.90;;;;;;4880953;29;20247;-64
2024/01/18 00:02:44;;;;;;;25.53;19.40;;;3.90;99.90;;;;;;4884856;29;20628;-64
2024/01/18 00:05:10;;;;;;;27.77;19.43;;;3.90;99.90;;;;;;4892704;29;20252;-64
2024/01/18 00:07:35;;;;;;;26.80;19.60;;;3.90;99.90;;;;;;4895091;29;20204;-65
2024/01/18 00:10:01;;;;;;;29.40;19.83;;;3.90;99.90;;;;;;4878961;29;20187;-64
2024/01/18 00:12:27;;;;;;;27.47;19.30;;;3.90;99.90;;;;;;4887378;29;20197;-64
2024/01/18 00:14:53;;;;;;;25.50;18.47;;;3.90;99.90;;;;;;4888135;29;20579;-66
2024/01/18 00:17:18;;;;;;;26.77;20.40;;;4.00;99.90;;;;;;4888503;29;20410;-64
2024/01/18 00:19:44;;;;;;;26.33;19.73;;;4.10;99.90;;;;;;4895129;29;20187;-64
2024/01/18 00:22:10;;;;;;;25.37;17.80;;;4.00;99.90;;;;;;4893754;29;20175;-66
2024/01/18 00:24:36;;;;;;;25.70;18.33;;;4.00;99.90;;;;;;4894088;29;20262;-64
2024/01/18 00:27:01;;;;;;;26.43;19.70;;;4.00;99.90;;;;;;4881555;29;20306;-64
2024/01/18 00:29:27;;;;;;;29.20;18.93;;;4.00;99.90;;;;;;4892182;29;20656;-65
2024/01/18 00:31:53;;;;;;;24.47;18.93;;;4.10;99.90;;;;;;4882604;29;20479;-67
2024/01/18 00:34:19;;;;;;;29.02;20.83;;;4.00;99.90;;;;;;4891106;29;20231;-65
2024/01/18 00:36:46;;;;;;;24.07;19.30;;;4.00;99.90;;;;;;4893713;29;20191;-65
2024/01/18 00:39:16;;;;;;;20.40;16.92;;;4.00;99.90;;;;;;4887327;29;20179;-65
2024/01/18 00:41:42;;;;;;;26.13;18.70;;;4.00;99.90;;;;;;4888217;29;20517;-65
2024/01/18 00:44:08;;;;;;;30.30;18.58;;;4.00;99.90;;;;;;4865211;29;20608;-65
2024/01/18 00:46:34;;;;;;;22.95;18.02;;;4.10;99.90;;;;;;4898378;29;20271;-65
2024/01/18 00:49:00;;;;;;;24.10;18.77;;;4.10;99.90;;;;;;4896753;29;20589;-65
2024/01/18 00:51:26;;;;;;;29.20;18.90;;;4.10;99.90;;;;;;4896869;29;20394;-65
2024/01/18 00:53:52;;;;;;;28.00;19.77;;;4.10;99.90;;;;;;4886493;29;20748;-66
2024/01/18 00:56:17;;;;;;;25.87;17.60;;;4.10;99.90;;;;;;4897849;29;20597;-65
2024/01/18 00:58:44;;;;;;;31.93;18.17;;;4.10;99.90;;;;;;4898564;29;20582;-65
2024/01/18 01:01:11;;;;;;;26.70;18.25;;;4.10;99.90;;;;;;4892373;29;20671;-64
2024/01/18 01:03:37;;;;;;;27.95;17.60;;;4.10;99.90;;;;;;4879695;29;20184;-65
2024/01/18 01:06:03;;;;;;;23.23;17.85;;;4.20;99.90;;;;;;4882543;29;20719;-65
2024/01/18 01:08:29;;;;;;;20.55;15.88;;;4.10;99.90;;;;;;4872817;29;20195;-64
2024/01/18 01:10:54;;;;;;;23.17;18.13;;;4.10;99.90;;;;;;4893630;29;20187;-67
2024/01/18 01:13:20;;;;;;;24.20;17.87;;;4.10;99.90;;;;;;4891098;29;20188;-65
2024/01/18 01:15:47;;;;;;;21.80;17.00;;;4.10;99.90;;;;;;4864563;29;20801;-65
2024/01/18 01:18:13;;;;;;;21.63;17.27;;;4.20;99.90;;;;;;4888952;29;20237;-65
2024/01/18 01:20:39;;;;;;;23.60;17.40;;;4.10;99.90;;;;;;4878589;29;20188;-65
2024/01/18 01:23:04;;;;;;;27.63;19.70;;;4.20;99.90;;;;;;4881109;29;20215;-65
2024/01/18 01:25:30;;;;;;;24.93;18.30;;;4.10;99.90;;;;;;4892016;29;20410;-64
2024/01/18 01:27:56;;;;;;;26.23;18.90;;;4.10;99.90;;;;;;4897721;29;20613;-68
2024/01/18 01:30:22;;;;;;;22.90;18.47;;;4.10;99.90;;;;;;4871371;29;20203;-65
2024/01/18 01:32:47;;;;;;;25.10;18.80;;;4.10;99.90;;;;;;4885164;29;20199;-65
2024/01/18 01:35:14;;;;;;;26.90;18.13;;;4.10;99.90;;;;;;4864276;29;20634;-64
2024/01/18 01:37:39;;;;;;;23.83;17.27;;;4.10;99.90;;;;;;4892951;29;20191;-64
2024/01/18 01:40:06;;;;;;;22.67;16.90;;;4.20;99.90;;;;;;4894192;29;20871;-65
2024/01/18 01:42:32;;;;;;;23.92;17.83;;;4.10;99.90;;;;;;4887411;29;20391;-65
2024/01/18 01:44:57;;;;;;;25.37;18.43;;;4.10;99.90;;;;;;4870080;29;20171;-67
2024/01/18 01:47:23;;;;;;;22.90;17.40;;;4.10;99.90;;;;;;4891807;29;20968;-64
2024/01/18 01:49:50;;;;;;;24.00;17.93;;;4.10;99.90;;;;;;4880462;29;20520;-65
2024/01/18 01:52:17;;;;;;;23.40;17.75;;;4.10;99.90;;;;;;4885914;29;20698;-65
2024/01/18 01:54:45;;;;;;;22.27;17.77;;;4.10;99.90;;;;;;4892313;29;20186;-65
2024/01/18 01:57:12;;;;;;;28.52;18.42;;;4.10;99.90;;;;;;4876828;29;20303;-64
2024/01/18 01:59:38;;;;;;;24.75;17.85;;;4.10;99.90;;;;;;4874334;29;20202;-65
2024/01/18 02:02:05;;;;;;;24.10;18.43;;;4.00;99.90;;;;;;4872892;29;20183;-65
2024/01/18 02:04:31;;;;;;;23.48;18.75;;;4.00;99.90;;;;;;4888981;29;20403;-65
2024/01/18 02:06:58;;;;;;;25.50;18.60;;;4.00;99.90;;;;;;4886625;29;20203;-67
2024/01/18 02:09:25;;;;;;;26.42;18.77;;;4.00;99.90;;;;;;4884191;29;20188;-65
2024/01/18 02:11:51;;;;;;;24.25;19.15;;;4.00;99.90;;;;;;4882807;29;20259;-65
2024/01/18 02:14:17;;;;;;;25.10;20.20;;;4.00;99.90;;;;;;4893655;29;20233;-65
2024/01/18 02:16:43;;;;;;;24.02;19.40;;;4.00;99.90;;;;;;4885632;29;20440;-65
2024/01/18 02:19:08;;;;;;;23.98;18.90;;;4.00;99.90;;;;;;4880496;29;20271;-65
2024/01/18 02:21:34;;;;;;;23.57;18.60;;;4.00;99.90;;;;;;4892681;29;20258;-64
2024/01/18 02:24:21;;;;;;;25.20;18.60;;;4.00;99.90;;;;;;4888450;29;20600;-67
2024/01/18 02:26:46;;;;;;;24.50;18.50;;;4.00;99.90;;;;;;4893522;29;20230;-65
2024/01/18 02:29:12;;;;;;;24.63;18.93;;;4.00;99.90;;;;;;4885025;29;20187;-64
2024/01/18 02:31:38;;;;;;;25.30;19.30;;;4.00;99.90;;;;;;4879952;29;20180;-64
2024/01/18 02:34:09;;;;;;;25.20;18.30;;;4.00;99.90;;;;;;4890362;29;20204;-64
2024/01/18 02:36:34;;;;;;;23.60;19.08;;;4.00;99.90;;;;;;4887998;29;20628;-65
2024/01/18 02:39:01;;;;;;;24.17;19.07;;;4.00;99.90;;;;;;4899477;29;20186;-67
2024/01/18 02:41:27;;;;;;;25.27;19.15;;;4.10;99.90;;;;;;4893281;29;20206;-65
2024/01/18 02:43:53;;;;;;;26.00;19.10;;;4.10;99.90;;;;;;4885768;29;20266;-65
2024/01/18 02:46:19;;;;;;;23.50;18.90;;;4.00;99.90;;;;;;4892336;29;20724;-65
2024/01/18 02:48:45;;;;;;;26.17;19.20;;;4.00;99.90;;;;;;4882951;29;20494;-65
2024/01/18 02:51:10;;;;;;;25.17;19.23;;;4.00;99.90;;;;;;4893124;29;20594;-65
2024/01/18 02:53:36;;;;;;;25.40;18.47;;;4.00;99.90;;;;;;4892373;29;20531;-64
2024/01/18 02:56:02;;;;;;;26.07;19.10;;;4.00;99.90;;;;;;4889304;29;20188;-67
2024/01/18 02:58:28;;;;;;;25.07;19.37;;;4.00;99.90;;;;;;4890489;29;20249;-65
2024/01/18 03:00:53;;;;;;;23.33;19.40;;;4.10;99.90;;;;;;4881809;29;20983;-64
2024/01/18 03:03:20;;;;;;;28.43;20.60;;;3.90;99.90;;;;;;4887644;29;20232;-64
2024/01/18 03:05:46;;;;;;;29.45;20.35;;;3.90;99.90;;;;;;4865143;29;20180;-65
2024/01/18 03:08:12;;;;;;;25.20;18.83;;;3.90;99.90;;;;;;4881297;29;20657;-65
2024/01/18 03:10:37;;;;;;;24.37;20.60;;;3.90;99.90;;;;;;4887446;29;20463;-65
2024/01/18 03:13:03;;;;;;;26.43;19.73;;;3.90;99.90;;;;;;4890791;29;20484;-68
2024/01/18 03:15:29;;;;;;;27.10;19.93;;;3.90;99.90;;;;;;4869523;29;20187;-65
2024/01/18 03:17:55;;;;;;;25.03;21.33;;;3.90;99.90;;;;;;4888029;29;20980;-64
2024/01/18 03:20:21;;;;;;;30.38;20.88;;;3.90;99.90;;;;;;4891141;29;20191;-64
2024/01/18 03:22:46;;;;;;;25.20;20.70;;;3.90;99.90;;;;;;4882339;29;20656;-64
2024/01/18 03:25:12;;;;;;;27.43;20.13;;;3.90;99.90;;;;;;4897146;29;20190;-65
2024/01/18 03:27:39;;;;;;;28.57;20.50;;;3.90;99.90;;;;;;4896424;29;20293;-65
2024/01/18 03:30:07;;;;;;;29.67;20.17;;;3.90;99.90;;;;;;4872989;29;20203;-68
2024/01/18 03:32:33;;;;;;;25.60;19.85;;;3.90;99.90;;;;;;4900119;29;20180;-65
2024/01/18 03:34:59;;;;;;;23.90;19.83;;;3.90;99.90;;;;;;4900088;29;20187;-65
2024/01/18 03:37:25;;;;;;;27.90;20.93;;;4.00;99.90;;;;;;4891103;29;20398;-65
2024/01/18 03:39:51;;;;;;;24.25;19.83;;;4.00;99.90;;;;;;4900065;29;20387;-65
2024/01/18 03:42:17;;;;;;;27.70;20.43;;;4.00;99.90;;;;;;4894897;29;20659;-65
2024/01/18 03:44:43;;;;;;;27.90;20.00;;;4.00;99.90;;;;;;4894575;29;20423;-65
2024/01/18 03:47:09;;;;;;;27.13;20.07;;;4.00;99.90;;;;;;4899132;29;20563;-65
2024/01/18 03:49:35;;;;;;;23.97;19.70;;;4.10;99.90;;;;;;4893617;29;20527;-65
2024/01/18 03:52:00;;;;;;;25.30;20.50;;;4.00;99.90;;;;;;4882099;29;20681;-65
2024/01/18 03:54:27;;;;;;;22.73;19.63;;;4.00;99.90;;;;;;4889906;29;20253;-65
2024/01/18 03:56:52;;;;;;;26.92;20.13;;;4.10;99.90;;;;;;4887175;29;20230;-64
2024/01/18 03:59:20;;;;;;;31.40;21.07;;;4.10;99.90;;;;;;4881280;29;20640;-65
2024/01/18 04:01:46;;;;;;;26.90;20.20;;;4.00;99.90;;;;;;4897712;29;20191;-65
2024/01/18 04:04:12;;;;;;;25.00;20.20;;;4.00;99.90;;;;;;4890637;29;20546;-65
2024/01/18 04:06:37;;;;;;;26.83;20.92;;;4.10;99.90;;;;;;4880648;29;20464;-65
2024/01/18 04:09:05;;;;;;;27.53;21.13;;;4.00;99.90;;;;;;4885442;29;20189;-65
2024/01/18 04:11:31;;;;;;;23.67;19.85;;;4.10;99.90;;;;;;4898387;29;20248;-64
2024/01/18 04:13:57;;;;;;;24.63;19.80;;;4.10;99.90;;;;;;4882012;29;20549;-65
2024/01/18 04:16:22;;;;;;;29.60;20.20;;;4.10;99.90;;;;;;4894073;29;20640;-65
2024/01/18 04:18:48;;;;;;;28.10;20.80;;;4.10;99.90;;;;;;4899306;29;20185;-65
2024/01/18 04:21:14;;;;;;;24.40;20.53;;;4.10;99.90;;;;;;4881715;29;20527;-65
2024/01/18 04:23:40;;;;;;;24.65;20.15;;;4.10;99.90;;;;;;4894481;29;20176;-65
2024/01/18 04:26:06;;;;;;;27.30;19.93;;;4.10;99.90;;;;;;4898606;29;20214;-67
2024/01/18 04:28:32;;;;;;;27.58;20.60;;;4.10;99.90;;;;;;4889876;29;20274;-65
2024/01/18 04:30:57;;;;;;;27.40;20.83;;;4.10;99.90;;;;;;4892445;29;20262;-65
2024/01/18 04:33:23;;;;;;;24.57;19.77;;;4.20;99.90;;;;;;4882072;29;20736;-65
2024/01/18 04:35:49;;;;;;;24.27;20.20;;;4.10;99.90;;;;;;4863524;29;20183;-65
2024/01/18 04:38:15;;;;;;;24.10;20.67;;;4.10;99.90;;;;;;4896428;29;20425;-65
2024/01/18 04:40:41;;;;;;;29.40;21.63;;;4.20;99.90;;;;;;4893765;29;20183;-65
2024/01/18 04:43:06;;;;;;;24.73;19.80;;;4.10;99.90;;;;;;4896962;29;20175;-67
2024/01/18 04:45:32;;;;;;;26.33;20.00;;;4.10;99.90;;;;;;4888126;29;20645;-65
2024/01/18 04:47:58;;;;;;;24.73;20.70;;;4.00;99.90;;;;;;4891932;29;20216;-64
2024/01/18 04:50:25;;;;;;;26.30;21.42;;;4.10;99.90;;;;;;4896236;29;20527;-65
2024/01/18 04:52:54;;;;;;;25.98;19.92;;;4.10;99.90;;;;;;4890255;29;20589;-65
2024/01/18 04:55:20;;;;;;;28.65;21.27;;;4.10;99.90;;;;;;4889601;29;20601;-65
2024/01/18 04:57:48;;;;;;;24.00;19.98;;;4.10;99.90;;;;;;4890291;29;20230;-65
2024/01/18 05:00:14;;;;;;;27.60;20.90;;;4.10;99.90;;;;;;4890953;29;20193;-65
2024/01/18 05:02:41;;;;;;;28.55;21.38;;;4.10;99.90;;;;;;4898323;29;20552;-65
2024/01/18 05:05:11;;;;;;;26.50;21.30;;;4.10;99.90;;;;;;4897632;29;20188;-65
2024/01/18 05:07:43;;;;;;;28.35;21.25;;;4.10;99.90;;;;;;4881367;29;20215;-65
2024/01/18 05:10:10;;;;;;;31.52;20.92;;;4.10;99.90;;;;;;4897484;29;20183;-67
2024/01/18 05:12:36;;;;;;;26.15;21.42;;;4.10;99.90;;;;;;4879200;29;20271;-65
2024/01/18 05:15:03;;;;;;;27.25;20.25;;;4.10;99.90;;;;;;4897940;29;20679;-65
2024/01/18 05:17:35;;;;;;;26.90;21.02;;;4.10;99.90;;;;;;4878257;29;20191;-65
2024/01/18 05:20:05;;;;;;;28.55;21.63;;;4.10;99.90;;;;;;4880418;29;20167;-65
2024/01/18 05:22:32;;;;;;;27.23;21.92;;;4.10;99.90;;;;;;4879655;29;20180;-65
2024/01/18 05:24:59;;;;;;;29.33;21.52;;;4.20;99.90;;;;;;4893196;29;20188;-65
2024/01/18 05:27:26;;;;;;;29.95;22.25;;;4.20;99.90;;;;;;4895541;29;20207;-65
2024/01/18 05:29:51;;;;;;;28.83;21.58;;;4.20;99.90;;;;;;4892598;29;20291;-65
2024/01/18 05:32:21;;;;;;;32.23;22.83;;;4.20;99.90;;;;;;4885714;29;20263;-65
2024/01/18 05:34:48;;;;;;;30.13;22.92;;;4.30;99.90;;;;;;4847060;29;20192;-65
2024/01/18 05:37:14;;;;;;;31.60;23.58;;;4.20;99.90;;;;;;4878444;29;20222;-68
2024/01/18 05:39:40;;;;;;;26.90;21.60;;;4.20;99.90;;;;;;4879148;29;20521;-65
2024/01/18 05:42:06;;;;;;;30.60;22.03;;;4.20;99.90;;;;;;4880311;29;20195;-65
2024/01/18 05:44:32;;;;;;;28.03;22.20;;;4.20;99.90;;;;;;4884084;29;20186;-65
2024/01/18 05:46:58;;;;;;;28.88;22.48;;;4.30;99.90;;;;;;4889793;29;20616;-65
2024/01/18 05:49:25;;;;;;;27.83;22.07;;;4.30;99.90;;;;;;4882955;29;20271;-65
2024/01/18 05:51:50;;;;;;;31.13;22.45;;;4.20;99.90;;;;;;4888929;29;20428;-65
2024/01/18 05:54:16;;;;;;;26.70;20.73;;;4.20;99.90;;;;;;4889081;29;20186;-65
2024/01/18 05:56:43;;;;;;;27.05;21.52;;;4.20;99.90;;;;;;4872966;29;20219;-66
2024/01/18 05:59:09;;;;;;;26.73;20.05;;;4.20;99.90;;;;;;4889695;29;20205;-66
2024/01/18 06:01:36;;;;;;;27.15;21.77;;;4.20;99.90;;;;;;4874530;29;20262;-66
2024/01/18 06:04:01;;;;;;;32.87;24.60;;;4.20;99.90;;;;;;4877707;29;20183;-66
2024/01/18 06:06:27;;;;;;;30.20;22.33;;;4.20;99.90;;;;;;4873450;29;20735;-66
2024/01/18 06:08:53;;;;;;;28.30;22.67;;;4.30;99.90;;;;;;4891037;29;20184;-65
2024/01/18 06:11:18;;;;;;;29.90;22.50;;;4.30;99.90;;;;;;4879046;29;20585;-66
2024/01/18 06:13:45;;;;;;;27.93;22.20;;;4.30;99.90;;;;;;4878641;29;20186;-66
2024/01/18 06:16:11;;;;;;;35.75;23.00;;;4.30;99.90;;;;;;4880700;29;20180;-65
2024/01/18 06:18:37;;;;;;;31.75;23.92;;;4.30;99.90;;;;;;4890337;29;20259;-66
2024/01/18 06:21:06;;;;;;;28.60;22.05;;;4.30;99.90;;;;;;4891560;29;20176;-66
2024/01/18 06:23:32;;;;;;;27.17;21.55;;;4.30;99.90;;;;;;4885006;29;20610;-65
2024/01/18 06:25:58;;;;;;;31.10;23.20;;;4.30;99.90;;;;;;4877363;29;20226;-65
2024/01/18 06:28:23;;;;;;;33.13;22.60;;;4.30;99.90;;;;;;4896344;29;20190;-66
2024/01/18 06:30:49;;;;;;;29.77;21.57;;;4.40;99.90;;;;;;4897307;29;20184;-66
2024/01/18 06:33:15;;;;;;;28.57;21.37;;;4.30;99.90;;;;;;4879838;29;20242;-68
2024/01/18 06:35:41;;;;;;;32.00;22.50;;;4.30;99.90;;;;;;4896702;29;20172;-65
2024/01/18 06:38:07;;;;;;;24.85;20.73;;;4.30;99.90;;;;;;4895529;29;20203;-66
2024/01/18 06:40:32;;;;;;;30.40;23.07;;;4.30;99.90;;;;;;4894765;29;20179;-67
2024/01/18 06:42:58;;;;;;;28.83;21.83;;;4.30;99.90;;;;;;4896685;29;20531;-66
2024/01/18 06:45:24;;;;;;;31.77;22.30;;;4.30;99.90;;;;;;4895650;29;20260;-66
2024/01/18 06:47:49;;;;;;;30.30;22.60;;;4.30;99.90;;;;;;4896843;29;20199;-66
2024/01/18 06:50:16;;;;;;;29.87;21.60;;;4.40;99.90;;;;;;4871248;29;20188;-67
2024/01/18 06:52:41;;;;;;;31.52;22.83;;;4.40;99.90;;;;;;4886217;29;20274;-66
2024/01/18 06:55:10;;;;;;;28.33;21.57;;;4.30;99.90;;;;;;4893259;29;20266;-66
2024/01/18 06:57:36;;;;;;;32.13;22.17;;;4.30;99.90;;;;;;4869011;29;20247;-67
2024/01/18 07:00:03;;;;;;;33.40;21.43;;;4.40;99.90;;;;;;4893125;29;20190;-67
2024/01/18 07:02:29;;;;;;;30.60;22.45;;;4.30;99.90;;;;;;4892787;29;20266;-67
2024/01/18 07:04:55;;;;;;;28.33;21.67;;;4.30;99.90;;;;;;4893561;29;20184;-67
2024/01/18 07:07:21;;;;;;;27.97;20.10;;;4.30;99.90;;;;;;4890105;29;20214;-67
2024/01/18 07:09:46;;;;;;;29.00;22.40;;;4.30;99.90;;;;;;4892226;29;20184;-67
2024/01/18 07:12:12;;;;;;;29.80;22.47;;;4.20;99.90;;;;;;4884876;29;20435;-67
2024/01/18 07:14:39;;;;;;;33.40;23.70;;;4.20;99.90;;;;;;4876932;29;20636;-67
2024/01/18 07:17:05;;;;;;;29.67;23.98;;;4.20;99.90;;;;;;4896951;29;20191;-67
2024/01/18 07:19:30;;;;;;;27.63;21.90;;;4.20;99.90;;;;;;4881574;29;20176;-68
2024/01/18 07:21:56;;;;;;;31.67;22.70;;;4.20;99.90;;;;;;4883522;29;20827;-66
2024/01/18 07:24:22;;;;;;;36.40;23.90;;;4.20;99.90;;;;;;4895699;29;20659;-67
2024/01/18 07:26:48;;;;;;;33.88;24.70;;;4.20;99.90;;;;;;4893030;29;20280;-68
2024/01/18 07:29:14;;;;;;;36.07;27.77;;;4.10;99.90;;;;;;4884896;29;20637;-67
2024/01/18 07:31:40;;;;;;;33.60;25.33;;;4.10;99.90;;;;;;4896640;29;20410;-68
2024/01/18 07:34:05;;;;;;;32.10;25.57;;;4.00;99.90;;;;;;4899840;29;20639;-67
2024/01/18 07:36:32;;;;;;;38.30;27.17;;;4.00;99.90;;;;;;4898006;29;20281;-68
2024/01/18 07:38:57;;;;;;;31.48;25.45;;;4.00;99.90;;;;;;4887642;29;20176;-68
2024/01/18 07:41:23;;;;;;;34.43;26.03;;;3.90;99.90;;;;;;4897125;29;20629;-68
2024/01/18 07:43:49;;;;;;;34.63;26.07;;;3.90;99.90;;;;;;4872480;29;20604;-66
2024/01/18 07:46:15;;;;;;;34.13;25.60;;;3.80;99.90;;;;;;4882858;29;20259;-68
2024/01/18 07:48:40;;;;;;;34.90;25.13;;;3.70;99.90;;;;;;4897423;29;20167;-67
2024/01/18 07:51:06;;;;;;;28.07;23.13;;;3.70;99.90;;;;;;4892335;29;20195;-67
2024/01/18 07:53:32;;;;;;;35.07;26.00;;;3.70;99.90;;;;;;4898323;29;20201;-67
2024/01/18 07:55:57;;;;;;;31.63;23.50;;;3.60;99.90;;;;;;4888946;29;20290;-67
2024/01/18 07:58:23;;;;;;;35.50;23.37;;;3.50;99.90;;;;;;4898535;29;20223;-68
2024/01/18 08:00:50;;;;;;;40.43;24.67;;;3.50;99.90;;;;;;4896556;29;20584;-68
2024/01/18 08:03:16;;;;;;;43.20;24.98;;;3.40;99.90;;;;;;4892792;29;20558;-65
2024/01/18 08:05:41;;;;;;;30.87;22.00;;;3.40;99.90;;;;;;4897843;29;20262;-66
2024/01/18 08:08:07;;;;;;;32.67;23.93;;;3.40;99.90;;;;;;4882370;29;20234;-66
2024/01/18 08:10:33;;;;;;;27.83;21.70;;;3.30;99.90;;;;;;4880950;29;20276;-67
2024/01/18 08:13:00;;;;;;;29.40;21.80;;;3.30;99.90;;;;;;4896371;29;20244;-67
2024/01/18 08:15:26;;;;;;;30.50;22.48;;;3.30;99.90;;;;;;4894274;29;20266;-67
2024/01/18 08:17:52;;;;;;;30.20;21.57;;;3.20;99.90;;;;;;4884900;29;20279;-67
2024/01/18 08:20:18;;;;;;;29.87;22.00;;;3.20;99.90;;;;;;4888728;29;20211;-67
2024/01/18 08:22:44;;;;;;;33.33;24.30;;;3.10;99.90;;;;;;4896695;29;20187;-67
2024/01/18 08:25:10;;;;;;;30.27;24.50;;;3.20;99.90;;;;;;4886187;29;20179;-65
2024/01/18 08:27:41;;;;;;;32.58;26.30;;;4.20;99.90;;;;;;4891425;29;20486;-66
2024/01/18 08:30:08;;;;;;;32.60;25.67;;;5.50;99.90;;;;;;4857066;29;20187;-66
2024/01/18 08:32:34;;;;;;;30.00;25.63;;;6.30;99.90;;;;;;4897934;29;20188;-66
2024/01/18 08:35:07;;;;;;;29.17;25.93;;;6.90;99.90;;;;;;4898899;29;20413;-66
2024/01/18 08:37:33;;;;;;;31.37;24.20;;;7.40;99.90;;;;;;4895637;29;20449;-65
2024/01/18 08:39:59;;;;;;;33.73;25.90;;;8.00;99.90;;;;;;4887030;29;20423;-66
2024/01/18 08:42:25;;;;;;;27.70;23.27;;;8.40;99.90;;;;;;4861430;29;20443;-66
2024/01/18 08:44:51;;;;;;;29.00;23.50;;;8.80;99.90;;;;;;4898588;29;20511;-66
2024/01/18 08:47:17;;;;;;;31.50;24.80;;;9.20;99.90;;;;;;4898754;29;20207;-66
2024/01/18 08:49:43;;;;;;;25.23;21.33;;;9.60;99.90;;;;;;4876203;29;20612;-66
2024/01/18 08:52:08;;;;;;;25.40;22.70;;;9.80;99.90;;;;;;4898645;29;20476;-67
2024/01/18 08:54:34;;;;;;;27.17;22.90;;;10.00;99.90;;;;;;4897586;29;20183;-66
2024/01/18 08:57:00;;;;;;;27.90;24.70;;;10.20;99.90;;;;;;4898599;29;20679;-69
2024/01/18 08:59:26;;;;;;;32.50;24.30;;;10.40;99.30;;;;;;4879575;29;20554;-68
2024/01/18 09:01:51;;;;;;;27.90;24.70;;;10.10;92.60;;;;;;4878571;29;20682;-66
2024/01/18 09:04:17;;;;;;;28.27;23.80;;;9.70;88.60;;;;;;4896610;29;20654;-66
2024/01/18 09:06:43;;;;;;;30.97;24.90;;;9.30;86.30;;;;;;4868723;29;20237;-67
2024/01/18 09:09:10;;;;;;;27.33;24.53;;;9.10;84.80;;;;;;4876782;29;20431;-66
2024/01/18 09:11:37;;;;;;;27.27;23.50;;;9.00;85.20;;;;;;4890325;29;20437;-67
2024/01/18 09:14:03;;;;;;;27.53;24.63;;;9.20;84.60;;;;;;4891636;29;20423;-67
2024/01/18 09:16:31;;;;;;;28.30;22.70;;;9.50;82.20;;;;;;4889730;29;20860;-67
2024/01/18 09:18:57;;;;;;;30.03;24.27;;;9.90;81.40;;;;;;4897057;29;20415;-67
2024/01/18 09:21:23;;;;;;;29.90;23.43;;;10.40;79.00;;;;;;4887613;29;20477;-69
2024/01/18 09:23:49;;;;;;;25.27;22.57;;;10.90;77.40;;;;;;4897554;29;20860;-67
2024/01/18 09:26:15;;;;;;;25.17;22.77;;;11.10;74.90;;;;;;4891329;29;20221;-67
2024/01/18 09:28:41;;;;;;;26.17;22.27;;;11.10;74.50;;;;;;4875913;29;20189;-67
2024/01/18 09:31:06;;;;;;;25.47;22.37;;;11.30;74.60;;;;;;4879345;29;20408;-67
2024/01/18 09:33:32;;;;;;;28.03;24.60;;;12.00;72.60;;;;;;4878467;29;20177;-67
2024/01/18 09:35:58;;;;;;;26.83;24.00;;;13.00;70.10;;;;;;4893955;29;20187;-67
2024/01/18 09:38:26;;;;;;;27.17;24.20;;;13.80;65.40;;;;;;4879337;29;20191;-67
2024/01/18 09:41:08;;;;;;;28.13;25.10;;;14.50;61.70;;;;;;4879615;29;20183;-67
2024/01/18 09:43:39;;;;;;;27.13;24.27;;;15.00;59.20;;;;;;4861444;29;20432;-67
2024/01/18 09:46:06;;;;;;;26.33;23.40;;;15.40;57.30;;;;;;4879351;29;20416;-67
2024/01/18 09:48:36;;;;;;;26.70;24.00;;;15.60;56.50;;;;;;4878640;29;20495;-68
2024/01/18 09:51:06;;;;;;;26.83;24.17;;;15.90;55.90;;;;;;4879431;29;20421;-67
2024/01/18 09:53:32;;;;;;;27.77;25.17;;;16.00;55.10;;;;;;4878804;29;20416;-67
2024/01/18 09:56:22;;;;;;;27.30;24.60;;;16.00;54.50;;;;;;4879295;29;20480;-68
2024/01/18 09:58:49;;;;;;;24.20;21.87;;;16.00;53.70;;;;;;4879439;29;20425;-68
2024/01/18 10:01:20;;;;;;;26.67;24.03;;;15.80;53.50;;;;;;4897301;29;20944;-67
2024/01/18 10:03:48;;;;;;;25.57;23.07;;;15.50;53.80;;;;;;4880291;29;20407;-67
2024/01/18 10:06:14;;;;;;;26.10;23.63;;;15.30;53.90;;;;;;4880900;29;20566;-68
2024/01/18 10:08:40;;;;;;;25.87;23.30;;;15.10;54.80;;;;;;4880882;29;20419;-67
2024/01/18 10:11:06;;;;;;;26.53;23.80;;;14.80;55.10;;;;;;4897763;29;20430;-67
2024/01/18 10:13:51;;;;;;;23.77;21.47;;;14.50;55.70;;;;;;4897151;29;20171;-68
2024/01/18 10:16:32;;;;;;;24.47;22.10;;;14.40;56.30;;;;;;4897717;29;20183;-67
2024/01/18 10:19:02;;;;;;;24.10;21.70;;;14.40;56.60;;;;;;4897262;29;20845;-68
2024/01/18 10:21:28;;;;;;;26.77;24.13;;;14.30;56.20;;;;;;4897479;29;20851;-69
2024/01/18 10:23:55;;;;;;;24.70;22.30;;;14.10;56.00;;;;;;4880674;29;20426;-67
2024/01/18 10:26:24;;;;;;;25.40;22.90;;;13.80;56.70;;;;;;4880607;29;20478;-67
2024/01/18 10:28:50;;;;;;;26.47;22.97;;;13.40;57.10;;;;;;4892584;29;20438;-66
2024/01/18 10:31:16;;;;;;;25.20;22.50;;;12.90;58.20;;;;;;4894318;29;20828;-67
2024/01/18 10:33:42;;;;;;;26.07;23.27;;;12.60;59.60;;;;;;4880259;29;20184;-67
2024/01/18 10:36:08;;;;;;;27.90;24.97;;;12.20;60.00;;;;;;4880975;29;20415;-67
2024/01/18 10:38:34;;;;;;;28.67;23.90;;;11.90;61.00;;;;;;4896762;29;20275;-67
2024/01/18 10:41:01;;;;;;;27.47;24.57;;;11.70;62.50;;;;;;4880341;29;20424;-67
2024/01/18 10:43:32;;;;;;;29.00;26.03;;;11.40;63.70;;;;;;4896491;29;20431;-67
2024/01/18 10:45:58;;;;;;;26.53;23.90;;;11.30;65.40;;;;;;4897272;29;20784;-67
2024/01/18 10:48:30;;;;;;;26.73;23.23;;;11.20;66.60;;;;;;4897433;29;20412;-67
2024/01/18 10:50:57;;;;;;;26.97;24.33;;;10.90;66.50;;;;;;4897327;29;20460;-67
2024/01/18 10:53:29;;;;;;;24.37;21.37;;;10.70;67.90;;;;;;4880024;29;20815;-68
2024/01/18 10:55:55;;;;;;;28.77;25.60;;;10.60;68.80;;;;;;4901059;29;20414;-68
2024/01/18 10:58:22;;;;;;;26.53;23.80;;;10.30;70.30;;;;;;4884093;29;20470;-68
2024/01/18 11:00:49;;;;;;;30.50;25.07;;;10.30;70.90;;;;;;4900189;29;20421;-68
2024/01/18 11:03:15;;;;;;;27.67;22.17;;;10.20;72.90;;;;;;4900726;29;20919;-66
2024/01/18 11:05:50;;;;;;;22.87;20.47;;;10.30;73.30;;;;;;4900397;29;20484;-68
2024/01/18 11:08:20;;;;;;;24.27;21.77;;;10.30;72.80;;;;;;4898868;29;20449;-67
2024/01/18 11:10:47;;;;;;;22.97;20.60;;;10.10;72.90;;;;;;4883622;29;20399;-69
2024/01/18 11:13:17;;;;;;;24.83;22.20;;;10.10;73.90;;;;;;4900594;29;20513;-66
2024/01/18 11:15:44;;;;;;;22.30;19.90;;;9.90;74.50;;;;;;4881354;29;20431;-68
2024/01/18 11:18:14;;;;;;;24.23;20.20;;;9.80;76.10;;;;;;4900500;29;20416;-68
2024/01/18 11:20:58;;;;;;;23.00;20.00;;;9.70;77.10;;;;;;4899876;29;20409;-68
2024/01/18 11:23:28;;;;;;;21.80;18.70;;;9.60;78.20;;;;;;4900587;29;20414;-68
2024/01/18 11:25:55;;;;;;;23.73;18.40;;;9.70;79.20;;;;;;4900033;29;20449;-67
2024/01/18 11:28:27;;;;;;;20.70;18.10;;;9.90;79.00;;;;;;4883878;29;20445;-67
2024/01/18 11:30:53;;;;;;;27.93;22.80;;;10.00;76.50;;;;;;4900011;29;20417;-68
2024/01/18 11:33:23;;;;;;;23.70;20.37;;;10.10;76.10;;;;;;4883813;29;20883;-68
2024/01/18 11:35:49;;;;;;;24.30;18.97;;;10.30;76.80;;;;;;4883007;29;20424;-67
2024/01/18 11:38:25;;;;;;;22.23;19.40;;;10.50;75.60;;;;;;4900162;29;20438;-67
2024/01/18 11:41:12;;;;;;;26.03;22.00;;;10.70;74.70;;;;;;4882861;29;20410;-67
2024/01/18 11:43:57;;;;;;;30.00;23.27;;;10.90;74.20;;;;;;4889467;29;20478;-68
2024/01/18 11:46:38;;;;;;;24.67;20.37;;;11.00;74.70;;;;;;4898930;29;20541;-67
2024/01/18 11:49:05;;;;;;;25.60;19.57;;;11.20;73.60;;;;;;4883050;29;20502;-67
2024/01/18 11:51:31;;;;;;;22.37;19.00;;;11.30;73.40;;;;;;4900151;29;20407;-67
2024/01/18 11:54:00;;;;;;;20.43;18.43;;;11.30;72.40;;;;;;4900020;29;20428;-68
2024/01/18 11:56:27;;;;;;;20.83;18.70;;;11.30;72.70;;;;;;4883221;29;20515;-67
2024/01/18 11:58:56;;;;;;;17.87;16.07;;;11.30;72.90;;;;;;4899430;29;20474;-67
2024/01/18 12:01:22;;;;;;;17.17;15.37;;;11.40;72.90;;;;;;4883294;29;20908;-67
2024/01/18 12:03:47;;;;;;;17.60;14.77;;;11.40;71.50;;;;;;4882176;29;20421;-67
2024/01/18 12:06:15;;;;;;;15.63;12.60;;;11.40;71.30;;;;;;4882068;29;20616;-68
2024/01/18 12:08:41;;;;;;;13.83;12.47;;;11.40;73.00;;;;;;4882682;29;20208;-67
2024/01/18 12:11:07;;;;;;;16.33;13.90;;;11.30;73.10;;;;;;4899683;29;20764;-67
2024/01/18 12:13:34;;;;;;;16.03;14.43;;;11.30;72.60;;;;;;4883045;29;20408;-70
2024/01/18 12:15:59;;;;;;;16.00;14.43;;;11.30;72.50;;;;;;4882700;29;20748;-67
2024/01/18 12:18:25;;;;;;;17.70;15.93;;;11.30;72.60;;;;;;4898145;29;20437;-66
2024/01/18 12:20:51;;;;;;;19.50;16.60;;;11.30;71.90;;;;;;4898793;29;20406;-66
2024/01/18 12:23:17;;;;;;;17.70;16.00;;;11.30;72.80;;;;;;4868108;29;20188;-65
2024/01/18 12:25:44;;;;;;;15.97;13.60;;;11.10;73.40;;;;;;4917752;29;20259;-66
2024/01/18 12:28:10;;;;;;;14.57;13.03;;;10.90;72.40;;;;;;4918318;29;20469;-66
2024/01/18 12:30:42;;;;;;;13.90;12.40;;;10.70;73.10;;;;;;4900865;29;20411;-67